createdAt,value
2024-02-10T00:00:30.345Z,32.67
2024-02-10T00:03:01.400Z,38.85
2024-02-10T00:05:30.583Z,35.55
2024-02-10T00:07:58.247Z,34.30
2024-02-10T00:10:26.846Z,35.20
2024-02-10T00:12:56.111Z,32.25
2024-02-10T00:15:24.731Z,29.30
2024-02-10T00:17:52.701Z,25.48
2024-02-10T00:20:21.747Z,26.77
2024-02-10T00:22:51.868Z,25.40
2024-02-10T00:25:20.479Z,30.20
2024-02-10T00:27:48.501Z,25.27
2024-02-10T00:30:18.170Z,40.95
2024-02-10T00:32:45.870Z,54.03
2024-02-10T00:35:13.536Z,60.63
2024-02-10T00:37:41.102Z,63.55
2024-02-10T00:40:11.963Z,42.67
2024-02-10T00:42:39.474Z,57.58
2024-02-10T00:45:08.624Z,46.15
2024-02-10T00:47:36.712Z,42.88
2024-02-10T00:50:04.603Z,35.67
2024-02-10T00:52:32.447Z,44.03
2024-02-10T00:55:00.828Z,48.13
2024-02-10T00:57:30.829Z,48.45
2024-02-10T00:59:58.699Z,68.68
2024-02-10T01:02:33.576Z,47.78
2024-02-10T01:05:03.166Z,48.05
2024-02-10T01:07:31.365Z,52.20
2024-02-10T01:09:59.781Z,47.25
2024-02-10T01:12:27.690Z,51.03
2024-02-10T01:14:59.353Z,48.05
2024-02-10T01:17:28.560Z,39.72
2024-02-10T01:19:56.236Z,51.67
2024-02-10T01:22:24.693Z,46.53
2024-02-10T01:24:56.188Z,43.53
2024-02-10T01:27:26.547Z,45.17
2024-02-10T01:29:56.209Z,54.58
2024-02-10T01:32:26.139Z,68.25
2024-02-10T01:34:55.302Z,51.53
2024-02-10T01:37:23.197Z,53.80
2024-02-10T01:39:56.006Z,87.03
2024-02-10T01:42:39.099Z,61.80
2024-02-10T01:45:09.698Z,109.13
2024-02-10T01:47:39.027Z,117.65
2024-02-10T01:50:07.556Z,55.70
2024-02-10T01:52:36.369Z,81.05
2024-02-10T01:55:05.349Z,111.32
2024-02-10T01:57:32.934Z,49.03
2024-02-10T02:00:06.987Z,43.72
2024-02-10T02:02:34.897Z,59.63
2024-02-10T02:05:04.900Z,54.50
2024-02-10T02:07:33.449Z,53.08
2024-02-10T02:10:01.788Z,40.47
2024-02-10T02:12:29.838Z,55.15
2024-02-10T02:14:58.630Z,47.15
2024-02-10T02:17:26.899Z,63.35
2024-02-10T02:19:54.672Z,44.50
2024-02-10T02:22:25.265Z,45.75
2024-02-10T02:24:54.811Z,57.67
2024-02-10T02:27:27.764Z,49.38
2024-02-10T02:29:56.853Z,40.67
2024-02-10T02:32:25.144Z,44.33
2024-02-10T02:34:53.278Z,42.97
2024-02-10T02:37:24.180Z,44.17
2024-02-10T02:39:51.781Z,46.10
2024-02-10T02:42:21.726Z,45.28
2024-02-10T02:44:49.269Z,41.38
2024-02-10T02:47:16.861Z,43.80
2024-02-10T02:49:45.875Z,38.55
2024-02-10T02:52:13.492Z,41.63
2024-02-10T02:54:41.825Z,47.15
2024-02-10T02:57:09.369Z,52.85
2024-02-10T02:59:39.295Z,58.60
2024-02-10T03:02:07.833Z,58.50
2024-02-10T03:04:35.398Z,50.85
2024-02-10T03:07:03.019Z,49.85
2024-02-10T03:09:30.745Z,54.00
2024-02-10T03:11:58.355Z,47.15
2024-02-10T03:14:26.881Z,51.33
2024-02-10T03:16:55.991Z,55.78
2024-02-10T03:19:23.705Z,67.07
2024-02-10T03:21:51.268Z,53.30
2024-02-10T03:24:18.776Z,58.08
2024-02-10T03:26:46.298Z,53.08
2024-02-10T03:29:13.838Z,48.42
2024-02-10T03:31:41.606Z,48.30
2024-02-10T03:34:10.697Z,56.28
2024-02-10T03:36:38.552Z,55.70
2024-02-10T03:39:08.703Z,51.80
2024-02-10T03:41:36.399Z,48.65
2024-02-10T03:44:04.061Z,45.35
2024-02-10T03:46:32.705Z,51.47
2024-02-10T03:49:01.952Z,48.67
2024-02-10T03:51:31.552Z,59.97
2024-02-10T03:53:59.069Z,58.53
2024-02-10T03:56:28.804Z,51.35
2024-02-10T03:58:57.060Z,57.60
2024-02-10T04:01:24.811Z,64.50
2024-02-10T04:03:52.564Z,58.13
2024-02-10T04:06:20.523Z,44.95
2024-02-10T04:08:49.656Z,55.75
2024-02-10T04:11:18.219Z,44.95
2024-02-10T04:13:47.636Z,47.00
2024-02-10T04:16:15.934Z,48.65
2024-02-10T04:18:44.177Z,54.35
2024-02-10T04:21:12.020Z,52.55
2024-02-10T04:23:41.360Z,54.72
2024-02-10T04:26:10.574Z,57.25
2024-02-10T04:28:38.248Z,57.13
2024-02-10T04:31:06.046Z,58.30
2024-02-10T04:33:33.821Z,61.55
2024-02-10T04:36:02.618Z,56.28
2024-02-10T04:38:30.477Z,52.05
2024-02-10T04:41:05.395Z,57.70
2024-02-10T04:43:37.490Z,58.97
2024-02-10T04:46:06.455Z,52.88
2024-02-10T04:48:34.143Z,54.83
2024-02-10T04:51:01.836Z,54.10
2024-02-10T04:53:29.321Z,55.60
2024-02-10T04:55:57.185Z,51.28
2024-02-10T04:58:25.216Z,54.25
2024-02-10T05:00:54.500Z,55.70
2024-02-10T05:03:22.020Z,49.65
2024-02-10T05:05:53.921Z,51.00
2024-02-10T05:08:21.443Z,51.38
2024-02-10T05:10:49.049Z,51.78
2024-02-10T05:13:16.559Z,65.65
2024-02-10T05:15:46.025Z,55.53
2024-02-10T05:18:15.059Z,52.35
2024-02-10T05:20:44.987Z,58.13
2024-02-10T05:23:12.818Z,54.33
2024-02-10T05:25:42.514Z,53.42
2024-02-10T05:28:10.237Z,55.42
2024-02-10T05:30:38.412Z,58.45
2024-02-10T05:33:06.798Z,57.05
2024-02-10T05:35:35.971Z,56.25
2024-02-10T05:38:05.289Z,73.68
2024-02-10T05:40:33.403Z,65.32
2024-02-10T05:43:07.355Z,66.90
2024-02-10T05:45:36.074Z,61.90
2024-02-10T05:48:03.869Z,63.75
2024-02-10T05:50:33.575Z,56.55
2024-02-10T05:53:02.754Z,62.50
2024-02-10T05:55:31.955Z,64.63
2024-02-10T05:58:03.891Z,57.45
2024-02-10T06:00:32.263Z,79.57
2024-02-10T06:03:00.734Z,71.32
2024-02-10T06:05:29.909Z,73.07
2024-02-10T06:07:58.879Z,83.30
2024-02-10T06:10:28.999Z,81.38
2024-02-10T06:13:00.103Z,71.68
2024-02-10T06:15:28.369Z,66.15
2024-02-10T06:17:59.548Z,71.72
2024-02-10T06:20:27.573Z,86.85
2024-02-10T06:22:56.067Z,77.07
2024-02-10T06:25:26.856Z,81.10
2024-02-10T06:27:57.564Z,82.85
2024-02-10T06:30:29.063Z,80.05
2024-02-10T06:32:57.505Z,87.78
2024-02-10T06:35:25.575Z,74.75
2024-02-10T06:37:56.160Z,74.13
2024-02-10T06:40:24.790Z,77.03
2024-02-10T06:42:53.603Z,80.53
2024-02-10T06:45:25.422Z,87.70
2024-02-10T06:47:53.767Z,71.68
2024-02-10T06:50:25.517Z,86.10
2024-02-10T06:52:55.850Z,76.30
2024-02-10T06:55:27.513Z,86.85
2024-02-10T06:57:56.807Z,77.82
2024-02-10T07:00:28.924Z,73.57
2024-02-10T07:02:58.568Z,72.13
2024-02-10T07:05:26.974Z,79.22
2024-02-10T07:07:55.679Z,78.72
2024-02-10T07:10:25.101Z,81.97
2024-02-10T07:12:57.183Z,75.22
2024-02-10T07:15:32.062Z,70.90
2024-02-10T07:18:03.864Z,77.45
2024-02-10T07:20:33.282Z,70.78
2024-02-10T07:23:01.741Z,74.50
2024-02-10T07:25:30.439Z,77.32
2024-02-10T07:28:03.963Z,91.78
2024-02-10T07:30:33.454Z,92.47
2024-02-10T07:33:10.710Z,93.88
2024-02-10T07:35:39.493Z,75.18
2024-02-10T07:38:07.135Z,76.88
2024-02-10T07:40:36.044Z,86.15
2024-02-10T07:43:05.636Z,90.50
2024-02-10T07:45:35.143Z,101.60
2024-02-10T07:48:05.717Z,94.85
2024-02-10T07:50:33.983Z,89.60
2024-02-10T07:53:01.944Z,96.43
2024-02-10T07:55:29.774Z,97.82
2024-02-10T07:57:59.960Z,94.20
2024-02-10T08:00:28.940Z,101.50
2024-02-10T08:02:58.536Z,88.90
2024-02-10T08:05:26.177Z,87.22
2024-02-10T08:08:01.811Z,81.05
2024-02-10T08:10:29.805Z,81.43
2024-02-10T08:12:57.439Z,85.85
2024-02-10T08:15:28.036Z,77.80
2024-02-10T08:18:07.026Z,83.15
2024-02-10T08:20:36.502Z,82.40
2024-02-10T08:23:04.126Z,87.25
2024-02-10T08:25:32.056Z,90.45
2024-02-10T08:28:01.889Z,82.40
2024-02-10T08:30:30.445Z,90.32
2024-02-10T08:33:01.550Z,83.13
2024-02-10T08:35:30.199Z,68.20
2024-02-10T08:37:59.572Z,91.32
2024-02-10T08:40:27.110Z,78.43
2024-02-10T08:42:58.151Z,58.03
2024-02-10T08:45:50.346Z,88.68
2024-02-10T08:48:18.406Z,86.43
2024-02-10T08:50:48.408Z,83.60
2024-02-10T08:53:18.105Z,80.43
2024-02-10T08:55:45.921Z,79.60
2024-02-10T08:58:14.400Z,83.32
2024-02-10T09:00:47.055Z,75.13
2024-02-10T09:03:14.933Z,83.60
2024-02-10T09:05:44.473Z,85.05
2024-02-10T09:08:12.025Z,88.15
2024-02-10T09:10:41.252Z,73.38
2024-02-10T09:13:09.793Z,72.32
2024-02-10T09:15:37.570Z,84.05
2024-02-10T09:18:05.361Z,79.95
2024-02-10T09:20:34.710Z,76.15
2024-02-10T09:23:04.306Z,78.22
2024-02-10T09:25:37.855Z,76.57
2024-02-10T09:28:22.146Z,72.25
2024-02-10T09:30:49.697Z,77.65
2024-02-10T09:33:22.134Z,74.05
2024-02-10T09:35:50.084Z,75.47
2024-02-10T09:38:17.737Z,86.88
2024-02-10T09:40:45.910Z,76.80
2024-02-10T09:43:15.939Z,79.70
2024-02-10T09:45:46.297Z,84.65
2024-02-10T09:48:16.407Z,95.43
2024-02-10T09:50:44.202Z,88.07
2024-02-10T09:53:13.184Z,82.80
2024-02-10T09:55:41.399Z,84.22
2024-02-10T09:58:09.129Z,85.57
2024-02-10T10:00:38.919Z,79.22
2024-02-10T10:03:07.144Z,79.70
2024-02-10T10:05:43.497Z,65.18
2024-02-10T10:08:12.505Z,75.80
2024-02-10T10:10:41.048Z,64.55
2024-02-10T10:13:09.898Z,65.30
2024-02-10T10:15:40.649Z,62.83
2024-02-10T10:18:15.808Z,74.55
2024-02-10T10:20:47.131Z,55.72
2024-02-10T10:23:15.558Z,57.60
2024-02-10T10:25:45.982Z,63.20
2024-02-10T10:28:14.636Z,63.92
2024-02-10T10:30:45.580Z,60.50
2024-02-10T10:33:13.627Z,57.47
2024-02-10T10:35:42.902Z,59.60
2024-02-10T10:38:10.978Z,61.20
2024-02-10T10:40:39.120Z,56.65
2024-02-10T10:43:09.503Z,51.90
2024-02-10T10:45:38.607Z,54.38
2024-02-10T10:48:09.046Z,53.35
2024-02-10T10:50:36.802Z,47.90
2024-02-10T10:53:08.379Z,51.45
2024-02-10T10:55:37.680Z,48.33
2024-02-10T10:58:08.107Z,45.40
2024-02-10T11:00:37.369Z,44.42
2024-02-10T11:03:11.148Z,48.63
2024-02-10T11:05:43.009Z,43.42
2024-02-10T11:08:14.824Z,42.35
2024-02-10T11:10:45.542Z,43.28
2024-02-10T11:13:22.334Z,40.95
2024-02-10T11:15:50.188Z,45.13
2024-02-10T11:18:21.748Z,40.10
2024-02-10T11:20:49.367Z,40.33
2024-02-10T11:23:20.520Z,36.55
2024-02-10T11:25:48.762Z,38.38
2024-02-10T11:28:23.158Z,38.40
2024-02-10T11:30:51.041Z,37.88
2024-02-10T11:33:24.292Z,34.90
2024-02-10T11:35:55.177Z,32.60
2024-02-10T11:38:24.871Z,38.80
2024-02-10T11:40:52.727Z,38.03
2024-02-10T11:43:20.752Z,42.00
2024-02-10T11:45:48.815Z,46.25
2024-02-10T11:48:16.415Z,41.50
2024-02-10T11:50:59.083Z,40.25
2024-02-10T11:53:32.752Z,41.55
2024-02-10T11:56:06.675Z,36.28
2024-02-10T11:58:34.719Z,39.28
2024-02-10T12:01:02.326Z,49.05
2024-02-10T12:03:31.613Z,42.35
2024-02-10T12:06:01.304Z,45.45
2024-02-10T12:08:31.170Z,36.65
2024-02-10T12:10:58.948Z,38.40
2024-02-10T12:13:28.835Z,43.97
2024-02-10T12:16:00.646Z,36.67
2024-02-10T12:18:29.883Z,32.65
2024-02-10T12:20:57.931Z,32.28
2024-02-10T12:23:31.562Z,35.65
2024-02-10T12:26:00.965Z,35.60
2024-02-10T12:28:28.711Z,30.83
2024-02-10T12:30:56.455Z,35.90
2024-02-10T12:33:25.583Z,39.90
2024-02-10T12:35:55.323Z,28.23
2024-02-10T12:38:26.404Z,28.27
2024-02-10T12:40:55.781Z,25.55
2024-02-10T12:43:25.007Z,24.63
2024-02-10T12:45:56.410Z,24.88
2024-02-10T12:48:24.103Z,28.67
2024-02-10T12:50:51.997Z,23.05
2024-02-10T12:53:20.490Z,18.67
2024-02-10T12:55:48.529Z,21.20
2024-02-10T12:58:21.408Z,21.17
2024-02-10T13:00:49.449Z,18.92
2024-02-10T13:03:21.502Z,18.52
2024-02-10T13:05:49.327Z,20.98
2024-02-10T13:08:17.145Z,19.75
2024-02-10T13:10:46.471Z,23.67
2024-02-10T13:13:14.257Z,17.48
2024-02-10T13:15:45.197Z,15.00
2024-02-10T13:18:15.195Z,18.17
2024-02-10T13:20:43.023Z,25.05
2024-02-10T13:23:10.728Z,17.67
2024-02-10T13:25:38.380Z,14.25
2024-02-10T13:28:12.687Z,14.85
2024-02-10T13:30:40.252Z,18.33
2024-02-10T13:33:09.766Z,12.93
2024-02-10T13:35:40.839Z,16.50
2024-02-10T13:38:27.066Z,14.57
2024-02-10T13:41:13.054Z,16.48
2024-02-10T13:43:58.725Z,20.17
2024-02-10T13:46:43.599Z,16.25
2024-02-10T13:49:29.977Z,16.08
2024-02-10T13:52:15.139Z,16.63
2024-02-10T13:55:01.061Z,11.73
2024-02-10T13:57:46.562Z,9.63
2024-02-10T14:00:25.916Z,9.23
2024-02-10T14:03:03.510Z,11.60
2024-02-10T14:05:43.437Z,8.35
2024-02-10T14:08:25.199Z,11.75
2024-02-10T14:10:57.458Z,10.60
2024-02-10T14:13:25.327Z,9.32
2024-02-10T14:15:58.414Z,11.15
2024-02-10T14:18:27.791Z,8.05
2024-02-10T14:21:02.023Z,8.18
2024-02-10T14:23:30.212Z,7.82
2024-02-10T14:25:59.737Z,7.32
2024-02-10T14:28:37.731Z,8.38
2024-02-10T14:31:17.293Z,6.07
2024-02-10T14:33:45.005Z,10.05
2024-02-10T14:36:18.341Z,14.77
2024-02-10T14:39:09.046Z,8.52
2024-02-10T14:41:39.678Z,8.43
2024-02-10T14:44:07.989Z,12.23
2024-02-10T14:46:39.657Z,7.93
2024-02-10T14:49:07.368Z,15.48
2024-02-10T14:51:36.362Z,11.85
2024-02-10T14:54:03.974Z,14.50
2024-02-10T14:56:33.117Z,11.00
2024-02-10T14:59:03.839Z,7.88
2024-02-10T15:01:33.174Z,11.18
2024-02-10T15:04:01.285Z,7.45
2024-02-10T15:06:34.055Z,12.90
2024-02-10T15:09:03.999Z,15.07
2024-02-10T15:11:31.523Z,9.25
2024-02-10T15:14:01.990Z,8.40
2024-02-10T15:16:29.605Z,9.20
2024-02-10T15:18:59.512Z,8.60
2024-02-10T15:21:30.084Z,10.57
2024-02-10T15:23:58.578Z,11.20
2024-02-10T15:26:27.712Z,11.18
2024-02-10T15:29:00.358Z,10.77
2024-02-10T15:31:28.182Z,9.63
2024-02-10T15:33:59.721Z,12.52
2024-02-10T15:36:28.324Z,9.23
2024-02-10T15:38:58.475Z,14.38
2024-02-10T15:41:28.010Z,7.78
2024-02-10T15:43:56.825Z,8.68
2024-02-10T15:46:27.937Z,9.65
2024-02-10T15:48:55.944Z,13.07
2024-02-10T15:51:23.767Z,14.27
2024-02-10T15:53:51.241Z,13.50
2024-02-10T15:56:19.598Z,11.55
2024-02-10T15:58:56.230Z,13.82
2024-02-10T16:01:26.344Z,19.30
2024-02-10T16:03:58.960Z,16.50
2024-02-10T16:06:26.648Z,16.08
2024-02-10T16:08:56.622Z,12.90
2024-02-10T16:11:28.087Z,12.02
2024-02-10T16:13:57.568Z,13.68
2024-02-10T16:16:28.093Z,18.58
2024-02-10T16:18:58.710Z,20.83
2024-02-10T16:21:29.775Z,30.20
2024-02-10T16:24:00.266Z,16.52
2024-02-10T16:26:27.908Z,16.50
2024-02-10T16:28:57.458Z,19.08
2024-02-10T16:31:26.886Z,18.45
2024-02-10T16:33:59.975Z,19.98
2024-02-10T16:36:30.424Z,15.93
2024-02-10T16:38:59.035Z,17.42
2024-02-10T16:41:30.121Z,21.15
2024-02-10T16:43:59.080Z,21.23
2024-02-10T16:46:28.876Z,17.08
2024-02-10T16:48:56.579Z,16.83
2024-02-10T16:51:26.081Z,23.70
2024-02-10T16:53:56.221Z,24.98
2024-02-10T16:56:24.105Z,19.65
2024-02-10T16:58:52.588Z,18.23
2024-02-10T17:01:21.621Z,15.43
2024-02-10T17:03:50.044Z,17.02
2024-02-10T17:06:21.736Z,17.38
2024-02-10T17:08:49.835Z,18.35
2024-02-10T17:11:18.032Z,15.88
2024-02-10T17:13:47.820Z,18.95
2024-02-10T17:16:17.298Z,15.88
2024-02-10T17:18:46.827Z,21.67
2024-02-10T17:21:14.515Z,25.52
2024-02-10T17:23:42.057Z,18.17
2024-02-10T17:26:14.357Z,46.17
2024-02-10T17:28:42.948Z,41.33
2024-02-10T17:31:13.156Z,35.70
2024-02-10T17:33:46.221Z,21.17
2024-02-10T17:36:15.315Z,26.77
2024-02-10T17:38:44.655Z,20.80
2024-02-10T17:41:13.152Z,17.05
2024-02-10T17:43:41.454Z,18.05
2024-02-10T17:46:09.620Z,15.35
2024-02-10T17:48:38.142Z,18.25
2024-02-10T17:51:08.540Z,20.42
2024-02-10T17:53:45.575Z,24.38
2024-02-10T17:56:14.132Z,20.67
2024-02-10T17:58:41.926Z,22.98
2024-02-10T18:01:12.487Z,18.33
2024-02-10T18:03:40.655Z,20.17
2024-02-10T18:06:15.100Z,25.23
2024-02-10T18:08:44.194Z,28.27
2024-02-10T18:11:16.659Z,27.25
2024-02-10T18:13:49.272Z,30.15
2024-02-10T18:16:19.153Z,23.92
2024-02-10T18:18:49.938Z,24.00
2024-02-10T18:21:22.668Z,37.58
2024-02-10T18:23:51.800Z,29.65
2024-02-10T18:26:19.448Z,31.20
2024-02-10T18:28:50.750Z,31.85
2024-02-10T18:31:22.707Z,29.90
2024-02-10T18:33:54.246Z,35.40
2024-02-10T18:36:21.762Z,45.15
2024-02-10T18:38:49.437Z,43.67
2024-02-10T18:41:27.215Z,38.60
2024-02-10T18:43:57.171Z,49.40
2024-02-10T18:46:25.476Z,45.45
2024-02-10T18:48:54.560Z,38.83
2024-02-10T18:51:22.344Z,26.23
2024-02-10T18:53:52.259Z,26.55
2024-02-10T18:56:25.763Z,23.42
2024-02-10T18:58:53.517Z,26.48
2024-02-10T19:01:24.227Z,22.13
2024-02-10T19:03:52.142Z,27.05
2024-02-10T19:06:21.862Z,28.48
2024-02-10T19:08:51.347Z,28.13
2024-02-10T19:14:08.323Z,28.13
2024-02-10T19:16:36.168Z,28.13
2024-02-10T19:19:03.765Z,31.30
2024-02-10T19:21:31.903Z,27.17
2024-02-10T19:24:02.093Z,34.67
2024-02-10T19:26:29.628Z,28.75
2024-02-10T19:28:58.246Z,39.22
2024-02-10T19:31:27.217Z,35.22
2024-02-10T19:33:55.835Z,25.73
2024-02-10T19:36:23.586Z,25.42
2024-02-10T19:38:51.288Z,22.15
2024-02-10T19:41:19.808Z,27.33
2024-02-10T19:43:48.290Z,27.90
2024-02-10T19:46:23.883Z,26.38
2024-02-10T19:48:52.981Z,26.70
2024-02-10T19:51:22.657Z,22.75
2024-02-10T19:53:53.946Z,21.70
2024-02-10T19:56:22.058Z,26.52
2024-02-10T19:58:51.883Z,35.45
2024-02-10T20:01:22.116Z,30.27
2024-02-10T20:03:53.096Z,20.92
2024-02-10T20:06:23.534Z,21.67
2024-02-10T20:08:55.688Z,29.58
2024-02-10T20:11:25.212Z,25.95
2024-02-10T20:13:53.424Z,30.58
2024-02-10T20:16:21.650Z,21.38
2024-02-10T20:18:49.427Z,25.95
2024-02-10T20:21:18.217Z,30.55
2024-02-10T20:23:47.892Z,36.10
2024-02-10T20:26:15.826Z,28.92
2024-02-10T20:28:44.221Z,30.38
2024-02-10T20:31:18.653Z,31.27
2024-02-10T20:33:53.797Z,32.35
2024-02-10T20:36:23.697Z,27.83
2024-02-10T20:38:52.689Z,26.98
2024-02-10T20:41:22.125Z,34.75
2024-02-10T20:43:49.738Z,27.45
2024-02-10T20:46:17.374Z,29.30
2024-02-10T20:48:45.562Z,26.63
2024-02-10T20:51:13.153Z,25.25
2024-02-10T20:53:42.705Z,26.02
2024-02-10T20:56:13.692Z,22.92
2024-02-10T20:58:43.004Z,23.95
2024-02-10T21:01:14.245Z,21.15
2024-02-10T21:03:44.267Z,23.23
2024-02-10T21:06:12.375Z,25.48
2024-02-10T21:08:40.343Z,34.72
2024-02-10T21:11:14.720Z,38.13
2024-02-10T21:13:44.802Z,31.90
2024-02-10T21:16:19.629Z,34.67
2024-02-10T21:18:49.579Z,28.58
2024-02-10T21:21:18.593Z,28.77
2024-02-10T21:23:47.171Z,32.63
2024-02-10T21:26:31.546Z,32.10
2024-02-10T21:29:04.298Z,32.38
2024-02-10T21:31:32.011Z,31.70
2024-02-10T21:33:59.689Z,30.50
2024-02-10T21:36:30.202Z,29.60
2024-02-10T21:38:57.777Z,28.23
2024-02-10T21:41:27.891Z,32.53
2024-02-10T21:43:56.357Z,27.10
2024-02-10T21:46:27.392Z,36.17
2024-02-10T21:48:56.225Z,36.20
2024-02-10T21:51:24.030Z,32.72
2024-02-10T21:53:55.855Z,28.17
2024-02-10T21:56:23.443Z,34.13
2024-02-10T21:58:52.469Z,32.67
2024-02-10T22:01:23.814Z,33.10
2024-02-10T22:03:55.094Z,33.50
2024-02-10T22:06:24.204Z,36.67
2024-02-10T22:08:51.728Z,39.13
2024-02-10T22:11:19.400Z,35.83
2024-02-10T22:13:47.926Z,36.90
2024-02-10T22:16:18.009Z,41.25
2024-02-10T22:18:46.849Z,34.95
2024-02-10T22:21:16.949Z,41.20
2024-02-10T22:23:45.739Z,37.08
2024-02-10T22:26:13.821Z,33.63
2024-02-10T22:28:48.924Z,35.35
2024-02-10T22:31:22.166Z,34.88
2024-02-10T22:33:49.960Z,33.08
2024-02-10T22:36:20.167Z,39.53
2024-02-10T22:38:49.040Z,33.17
2024-02-10T22:41:18.123Z,35.75
2024-02-10T22:43:45.846Z,37.22
2024-02-10T22:46:15.307Z,37.13
2024-02-10T22:48:45.808Z,38.17
2024-02-10T22:51:16.653Z,33.30
2024-02-10T22:53:45.932Z,34.97
2024-02-10T22:56:13.636Z,34.50
2024-02-10T22:58:41.200Z,40.85
2024-02-10T23:01:09.709Z,39.30
2024-02-10T23:03:37.320Z,32.38
2024-02-10T23:06:05.183Z,38.90
2024-02-10T23:08:34.937Z,33.80
2024-02-10T23:11:04.247Z,41.42
2024-02-10T23:13:35.614Z,39.15
2024-02-10T23:16:04.682Z,35.35
2024-02-10T23:18:35.465Z,35.55
2024-02-10T23:21:03.450Z,36.42
2024-02-10T23:23:33.923Z,35.45
2024-02-10T23:26:01.783Z,35.50
2024-02-10T23:28:35.698Z,42.03
2024-02-10T23:31:06.762Z,35.80
2024-02-10T23:33:34.640Z,43.17
2024-02-10T23:36:06.046Z,36.50
2024-02-10T23:38:35.982Z,32.47
2024-02-10T23:41:06.729Z,40.78
2024-02-10T23:43:36.760Z,38.60
2024-02-10T23:46:07.501Z,35.67
2024-02-10T23:48:35.651Z,37.40
2024-02-10T23:51:03.798Z,37.72
2024-02-10T23:53:31.352Z,34.22
2024-02-10T23:55:59.683Z,37.65
2024-02-10T23:58:30.445Z,41.05
